sensor_id;sensor_type;location;lat;lon;timestamp;pressure;altitude;pressure_sealevel;temperature;humidity
72892;BME280;61032;50.782;6.818;2022-11-15T00:00:54;99933.19;;;11.91;79.32
72892;BME280;61032;50.782;6.818;2022-11-15T00:01:54;99930.09;;;11.92;79.30
72892;BME280;61032;50.782;6.818;2022-11-15T00:02:55;99933.63;;;11.93;79.44
72892;BME280;61032;50.782;6.818;2022-11-15T00:03:55;99926.97;;;11.94;79.04
72892;BME280;61032;50.782;6.818;2022-11-15T00:04:55;99925.38;;;11.93;79.58
72892;BME280;61032;50.782;6.818;2022-11-15T00:06:01;99928.13;;;11.93;79.30
72892;BME280;61032;50.782;6.818;2022-11-15T00:07:01;99930.88;;;11.93;79.38
72892;BME280;61032;50.782;6.818;2022-11-15T00:08:01;99930.44;;;11.91;79.49
72892;BME280;61032;50.782;6.818;2022-11-15T00:09:02;99927.56;;;11.87;79.52
72892;BME280;61032;50.782;6.818;2022-11-15T00:10:03;99920.13;;;11.88;79.61
72892;BME280;61032;50.782;6.818;2022-11-15T00:11:04;99922.88;;;11.88;79.78
72892;BME280;61032;50.782;6.818;2022-11-15T00:12:04;99924.94;;;11.91;79.54
72892;BME280;61032;50.782;6.818;2022-11-15T00:13:09;99924.56;;;11.92;79.63
72892;BME280;61032;50.782;6.818;2022-11-15T00:14:10;99923.06;;;11.95;79.17
72892;BME280;61032;50.782;6.818;2022-11-15T00:15:10;99926.53;;;11.92;79.36
72892;BME280;61032;50.782;6.818;2022-11-15T00:16:10;99915.50;;;11.92;79.33
72892;BME280;61032;50.782;6.818;2022-11-15T00:17:11;99919.88;;;11.93;79.08
72892;BME280;61032;50.782;6.818;2022-11-15T00:18:14;99912.31;;;11.90;79.51
72892;BME280;61032;50.782;6.818;2022-11-15T00:19:15;99922.41;;;11.86;79.51
72892;BME280;61032;50.782;6.818;2022-11-15T00:20:17;99922.81;;;11.84;79.90
72892;BME280;61032;50.782;6.818;2022-11-15T00:21:17;99923.56;;;11.85;80.06
72892;BME280;61032;50.782;6.818;2022-11-15T00:22:18;99920.13;;;11.88;79.88
72892;BME280;61032;50.782;6.818;2022-11-15T00:23:18;99926.53;;;11.92;79.76
72892;BME280;61032;50.782;6.818;2022-11-15T00:24:18;99922.97;;;11.91;79.52
72892;BME280;61032;50.782;6.818;2022-11-15T00:25:18;99926.97;;;11.94;79.37
72892;BME280;61032;50.782;6.818;2022-11-15T00:26:19;99928.47;;;11.91;79.76
72892;BME280;61032;50.782;6.818;2022-11-15T00:27:19;99928.13;;;11.93;79.72
72892;BME280;61032;50.782;6.818;2022-11-15T00:28:19;99924.47;;;11.89;79.70
72892;BME280;61032;50.782;6.818;2022-11-15T00:29:20;99930.34;;;11.87;79.84
72892;BME280;61032;50.782;6.818;2022-11-15T00:30:20;99922.41;;;11.86;79.93
72892;BME280;61032;50.782;6.818;2022-11-15T00:31:20;99916.56;;;11.87;79.64
72892;BME280;61032;50.782;6.818;2022-11-15T00:32:20;99919.75;;;11.89;79.65
72892;BME280;61032;50.782;6.818;2022-11-15T00:33:21;99917.81;;;11.90;79.66
72892;BME280;61032;50.782;6.818;2022-11-15T00:34:21;99916.66;;;11.91;79.57
72892;BME280;61032;50.782;6.818;2022-11-15T00:35:22;99910.34;;;11.90;79.60
72892;BME280;61032;50.782;6.818;2022-11-15T00:36:26;99913.56;;;11.92;79.60
72892;BME280;61032;50.782;6.818;2022-11-15T00:37:27;99914.59;;;11.88;79.82
72892;BME280;61032;50.782;6.818;2022-11-15T00:38:31;99910.81;;;11.92;79.65
72892;BME280;61032;50.782;6.818;2022-11-15T00:39:32;99906.44;;;11.91;79.88
72892;BME280;61032;50.782;6.818;2022-11-15T00:40:32;99906.88;;;11.93;79.78
72892;BME280;61032;50.782;6.818;2022-11-15T00:41:32;99909.28;;;11.95;79.67
72892;BME280;61032;50.782;6.818;2022-11-15T00:42:32;99906.53;;;11.95;79.83
72892;BME280;61032;50.782;6.818;2022-11-15T00:43:33;99908.25;;;11.99;79.79
72892;BME280;61032;50.782;6.818;2022-11-15T00:44:34;99905.47;;;11.99;79.51
72892;BME280;61032;50.782;6.818;2022-11-15T00:45:34;99902.38;;;12.01;79.52
72892;BME280;61032;50.782;6.818;2022-11-15T00:46:34;99898.91;;;12.04;79.54
72892;BME280;61032;50.782;6.818;2022-11-15T00:47:35;99897.31;;;12.03;79.49
72892;BME280;61032;50.782;6.818;2022-11-15T00:48:36;99894.13;;;12.01;79.76
72892;BME280;61032;50.782;6.818;2022-11-15T00:49:36;99898.47;;;12.02;79.83
72892;BME280;61032;50.782;6.818;2022-11-15T00:50:36;99901.22;;;12.02;79.70
72892;BME280;61032;50.782;6.818;2022-11-15T00:51:37;99902.09;;;12.06;79.44
72892;BME280;61032;50.782;6.818;2022-11-15T00:52:37;99903.09;;;12.14;79.44
72892;BME280;61032;50.782;6.818;2022-11-15T00:53:37;99898.47;;;12.18;79.17
72892;BME280;61032;50.782;6.818;2022-11-15T00:54:38;99892.84;;;12.14;79.38
72892;BME280;61032;50.782;6.818;2022-11-15T00:55:38;99907.88;;;12.17;79.40
72892;BME280;61032;50.782;6.818;2022-11-15T00:56:38;99899.97;;;12.15;79.48
72892;BME280;61032;50.782;6.818;2022-11-15T00:57:38;99901.56;;;12.16;79.53
72892;BME280;61032;50.782;6.818;2022-11-15T00:58:39;99905.03;;;12.13;79.75
72892;BME280;61032;50.782;6.818;2022-11-15T00:59:39;99893.56;;;12.11;79.40
72892;BME280;61032;50.782;6.818;2022-11-15T01:00:39;99900.22;;;12.10;79.71
72892;BME280;61032;50.782;6.818;2022-11-15T01:01:40;99892.84;;;12.14;79.68
72892;BME280;61032;50.782;6.818;2022-11-15T01:02:40;99888.94;;;12.15;79.71
72892;BME280;61032;50.782;6.818;2022-11-15T01:03:41;99885.75;;;12.13;79.46
72892;BME280;61032;50.782;6.818;2022-11-15T01:04:41;99888.16;;;12.15;79.66
72892;BME280;61032;50.782;6.818;2022-11-15T01:05:41;99887.00;;;12.16;79.72
72892;BME280;61032;50.782;6.818;2022-11-15T01:06:42;99889.66;;;12.12;79.81
72892;BME280;61032;50.782;6.818;2022-11-15T01:07:42;99891.88;;;12.07;80.18
72892;BME280;61032;50.782;6.818;2022-11-15T01:08:42;99886.09;;;12.12;80.11
72892;BME280;61032;50.782;6.818;2022-11-15T01:09:43;99897.03;;;12.08;80.25
72892;BME280;61032;50.782;6.818;2022-11-15T01:10:43;99901.75;;;12.08;80.08
72892;BME280;61032;50.782;6.818;2022-11-15T01:11:43;99891.25;;;12.13;80.00
72892;BME280;61032;50.782;6.818;2022-11-15T01:12:44;99889.66;;;12.12;80.06
72892;BME280;61032;50.782;6.818;2022-11-15T01:13:44;99892.84;;;12.14;79.98
72892;BME280;61032;50.782;6.818;2022-11-15T01:14:44;99896.06;;;12.16;80.13
72892;BME280;61032;50.782;6.818;2022-11-15T01:15:45;99891.25;;;12.13;80.08
72892;BME280;61032;50.782;6.818;2022-11-15T01:16:45;99902.28;;;12.13;80.26
72892;BME280;61032;50.782;6.818;2022-11-15T01:17:45;99891.97;;;12.10;80.56
72892;BME280;61032;50.782;6.818;2022-11-15T01:18:46;99899.78;;;12.08;80.42
72892;BME280;61032;50.782;6.818;2022-11-15T01:19:46;99898.19;;;12.07;80.96
72892;BME280;61032;50.782;6.818;2022-11-15T01:20:46;99898.19;;;12.07;80.70
72892;BME280;61032;50.782;6.818;2022-11-15T01:21:50;99883.25;;;12.08;80.94
72892;BME280;61032;50.782;6.818;2022-11-15T01:22:50;99896.69;;;12.10;81.03
72892;BME280;61032;50.782;6.818;2022-11-15T01:23:55;99903.44;;;12.12;80.86
72892;BME280;61032;50.782;6.818;2022-11-15T01:24:55;99888.50;;;12.13;80.73
72892;BME280;61032;50.782;6.818;2022-11-15T01:26:04;99893.31;;;12.16;80.91
72892;BME280;61032;50.782;6.818;2022-11-15T01:27:05;99890.56;;;12.16;80.94
72892;BME280;61032;50.782;6.818;2022-11-15T01:28:06;99884.78;;;12.21;80.65
72892;BME280;61032;50.782;6.818;2022-11-15T01:29:06;99887.44;;;12.18;80.67
72892;BME280;61032;50.782;6.818;2022-11-15T01:30:07;99884.78;;;12.21;80.77
72892;BME280;61032;50.782;6.818;2022-11-15T01:31:13;99880.41;;;12.20;81.21
72892;BME280;61032;50.782;6.818;2022-11-15T01:32:13;99880.78;;;12.19;81.34
72892;BME280;61032;50.782;6.818;2022-11-15T01:33:14;99877.94;;;12.15;81.46
72892;BME280;61032;50.782;6.818;2022-11-15T01:34:14;99883.19;;;12.20;81.58
72892;BME280;61032;50.782;6.818;2022-11-15T01:35:15;99878.47;;;12.21;81.65
72892;BME280;61032;50.782;6.818;2022-11-15T01:36:20;99873.31;;;12.19;81.42
72892;BME280;61032;50.782;6.818;2022-11-15T01:37:24;99874.47;;;12.18;81.60
72892;BME280;61032;50.782;6.818;2022-11-15T01:38:24;99874.19;;;12.23;81.51
72892;BME280;61032;50.782;6.818;2022-11-15T01:39:24;99875.06;;;12.27;81.29
72892;BME280;61032;50.782;6.818;2022-11-15T01:40:25;99875.59;;;12.33;81.33
72892;BME280;61032;50.782;6.818;2022-11-15T01:41:31;99868.13;;;12.33;80.96
72892;BME280;61032;50.782;6.818;2022-11-15T01:42:31;99864.56;;;12.33;81.13
72892;BME280;61032;50.782;6.818;2022-11-15T01:43:34;99869.28;;;12.32;81.20
72892;BME280;61032;50.782;6.818;2022-11-15T01:44:44;99881.03;;;12.29;81.35
72892;BME280;61032;50.782;6.818;2022-11-15T01:45:52;99870.09;;;12.33;81.02
72892;BME280;61032;50.782;6.818;2022-11-15T01:46:57;99879.97;;;12.34;80.96
72892;BME280;61032;50.782;6.818;2022-11-15T01:47:59;99870.97;;;12.37;81.19
72892;BME280;61032;50.782;6.818;2022-11-15T01:49:02;99877.66;;;12.36;81.05
72892;BME280;61032;50.782;6.818;2022-11-15T01:50:14;99872.13;;;12.36;80.91
72892;BME280;61032;50.782;6.818;2022-11-15T01:51:17;99871.78;;;12.37;80.99
72892;BME280;61032;50.782;6.818;2022-11-15T01:52:22;99873.72;;;12.37;81.04
72892;BME280;61032;50.782;6.818;2022-11-15T01:53:25;99864.22;;;12.34;81.07
72892;BME280;61032;50.782;6.818;2022-11-15T01:54:26;99867.25;;;12.29;81.25
72892;BME280;61032;50.782;6.818;2022-11-15T01:55:27;99868.03;;;12.30;81.34
72892;BME280;61032;50.782;6.818;2022-11-15T01:56:30;99862.88;;;12.28;81.22
72892;BME280;61032;50.782;6.818;2022-11-15T01:57:33;99860.13;;;12.28;81.05
72892;BME280;61032;50.782;6.818;2022-11-15T01:58:35;99862.19;;;12.31;81.11
72892;BME280;61032;50.782;6.818;2022-11-15T01:59:37;99854.78;;;12.35;80.82
72892;BME280;61032;50.782;6.818;2022-11-15T02:00:38;99857.56;;;12.35;80.88
72892;BME280;61032;50.782;6.818;2022-11-15T02:01:38;99853.28;;;12.38;80.75
72892;BME280;61032;50.782;6.818;2022-11-15T02:02:39;99854.34;;;12.33;80.75
72892;BME280;61032;50.782;6.818;2022-11-15T02:03:52;99856.47;;;12.40;80.69
72892;BME280;61032;50.782;6.818;2022-11-15T02:04:55;99858.44;;;12.39;80.80
72892;BME280;61032;50.782;6.818;2022-11-15T02:05:55;99857.63;;;12.39;80.83
72892;BME280;61032;50.782;6.818;2022-11-15T02:06:56;99858.00;;;12.37;80.94
72892;BME280;61032;50.782;6.818;2022-11-15T02:07:57;99869.03;;;12.37;80.67
72892;BME280;61032;50.782;6.818;2022-11-15T02:08:58;99863.88;;;12.36;80.95
72892;BME280;61032;50.782;6.818;2022-11-15T02:10:04;99854.09;;;12.38;80.65
72892;BME280;61032;50.782;6.818;2022-11-15T02:11:11;99860.03;;;12.41;80.63
72892;BME280;61032;50.782;6.818;2022-11-15T02:12:14;99856.13;;;12.42;80.58
72892;BME280;61032;50.782;6.818;2022-11-15T02:13:16;99854.97;;;12.43;80.64
72892;BME280;61032;50.782;6.818;2022-11-15T02:14:19;99856.41;;;12.36;80.84
72892;BME280;61032;50.782;6.818;2022-11-15T02:15:20;99850.09;;;12.36;80.49
72892;BME280;61032;50.782;6.818;2022-11-15T02:16:35;99857.63;;;12.39;80.53
72892;BME280;61032;50.782;6.818;2022-11-15T02:17:54;99853.63;;;12.36;80.65
72892;BME280;61032;50.782;6.818;2022-11-15T02:19:01;99845.38;;;12.36;80.69
72892;BME280;61032;50.782;6.818;2022-11-15T02:21:39;99844.94;;;12.34;80.62
72892;BME280;61032;50.782;6.818;2022-11-15T02:28:58;99841.72;;;12.32;80.89
72892;BME280;61032;50.782;6.818;2022-11-15T02:31:51;99843.06;;;12.38;80.76
72892;BME280;61032;50.782;6.818;2022-11-15T02:33:02;99844.47;;;12.32;80.98
72892;BME280;61032;50.782;6.818;2022-11-15T02:35:59;99840.31;;;12.38;80.86
72892;BME280;61032;50.782;6.818;2022-11-15T02:37:09;99841.47;;;12.37;80.77
72892;BME280;61032;50.782;6.818;2022-11-15T02:38:34;99832.75;;;12.35;80.88
72892;BME280;61032;50.782;6.818;2022-11-15T02:41:09;99828.84;;;12.36;80.75
72892;BME280;61032;50.782;6.818;2022-11-15T02:42:33;99828.31;;;12.31;80.72
72892;BME280;61032;50.782;6.818;2022-11-15T02:44:20;99832.56;;;12.28;81.10
72892;BME280;61032;50.782;6.818;2022-11-15T02:45:22;99836.47;;;12.27;81.38
72892;BME280;61032;50.782;6.818;2022-11-15T02:46:38;99832.50;;;12.25;80.73
72892;BME280;61032;50.782;6.818;2022-11-15T02:47:59;99830.91;;;12.24;81.13
72892;BME280;61032;50.782;6.818;2022-11-15T02:49:01;99826.19;;;12.24;81.12
72892;BME280;61032;50.782;6.818;2022-11-15T02:50:06;99816.78;;;12.25;81.25
72892;BME280;61032;50.782;6.818;2022-11-15T02:51:08;99826.59;;;12.26;81.21
72892;BME280;61032;50.782;6.818;2022-11-15T02:52:08;99820.69;;;12.24;81.16
72892;BME280;61032;50.782;6.818;2022-11-15T02:53:10;99823.78;;;12.23;81.47
72892;BME280;61032;50.782;6.818;2022-11-15T02:54:14;99819.09;;;12.23;81.16
72892;BME280;61032;50.782;6.818;2022-11-15T02:56:31;99816.78;;;12.25;81.00
72892;BME280;61032;50.782;6.818;2022-11-15T02:58:58;99822.66;;;12.24;81.24
72892;BME280;61032;50.782;6.818;2022-11-15T03:00:07;99813.47;;;12.20;81.44
72892;BME280;61032;50.782;6.818;2022-11-15T03:05:04;99811.97;;;12.22;81.58
72892;BME280;61032;50.782;6.818;2022-11-15T03:06:13;99809.56;;;12.21;81.51
72892;BME280;61032;50.782;6.818;2022-11-15T03:07:39;99813.56;;;12.23;81.37
72892;BME280;61032;50.782;6.818;2022-11-15T03:09:03;99812.06;;;12.26;81.24
72892;BME280;61032;50.782;6.818;2022-11-15T03:11:24;99817.50;;;12.22;81.28
72892;BME280;61032;50.782;6.818;2022-11-15T03:12:31;99815.97;;;12.25;81.38
72892;BME280;61032;50.782;6.818;2022-11-15T03:15:01;99812.91;;;12.30;81.16
72892;BME280;61032;50.782;6.818;2022-11-15T03:16:11;99808.22;;;12.30;80.75
72892;BME280;61032;50.782;6.818;2022-11-15T03:17:31;99810.97;;;12.30;80.96
72892;BME280;61032;50.782;6.818;2022-11-15T03:18:38;99814.97;;;12.33;80.94
72892;BME280;61032;50.782;6.818;2022-11-15T03:19:45;99813.00;;;12.33;80.85
72892;BME280;61032;50.782;6.818;2022-11-15T03:20:48;99812.28;;;12.36;80.64
72892;BME280;61032;50.782;6.818;2022-11-15T03:21:50;99809.19;;;12.38;80.83
72892;BME280;61032;50.782;6.818;2022-11-15T03:22:53;99815.56;;;12.42;80.77
72892;BME280;61032;50.782;6.818;2022-11-15T03:23:57;99815.28;;;12.47;80.18
72892;BME280;61032;50.782;6.818;2022-11-15T03:25:03;99806.38;;;12.54;80.05
72892;BME280;61032;50.782;6.818;2022-11-15T03:26:07;99815.16;;;12.59;79.88
72892;BME280;61032;50.782;6.818;2022-11-15T03:27:10;99801.81;;;12.61;79.55
72892;BME280;61032;50.782;6.818;2022-11-15T03:28:17;99805.81;;;12.64;79.58
72892;BME280;61032;50.782;6.818;2022-11-15T03:29:29;99803.50;;;12.66;79.48
72892;BME280;61032;50.782;6.818;2022-11-15T03:30:34;99805.94;;;12.71;79.34
72892;BME280;61032;50.782;6.818;2022-11-15T03:31:39;99810.75;;;12.74;79.17
72892;BME280;61032;50.782;6.818;2022-11-15T03:32:51;99798.13;;;12.73;79.16
72892;BME280;61032;50.782;6.818;2022-11-15T03:33:54;99807.56;;;12.72;79.18
72892;BME280;61032;50.782;6.818;2022-11-15T03:35:58;99811.91;;;12.73;79.32
72892;BME280;61032;50.782;6.818;2022-11-15T03:36:59;99805.22;;;12.74;79.33
72892;BME280;61032;50.782;6.818;2022-11-15T03:39:08;99805.16;;;12.70;79.41
72892;BME280;61032;50.782;6.818;2022-11-15T03:40:09;99799.63;;;12.70;79.09
72892;BME280;61032;50.782;6.818;2022-11-15T03:41:40;99800.59;;;12.78;79.06
72892;BME280;61032;50.782;6.818;2022-11-15T03:42:49;99806.91;;;12.79;79.08
72892;BME280;61032;50.782;6.818;2022-11-15T03:44:02;99806.19;;;12.82;78.95
72892;BME280;61032;50.782;6.818;2022-11-15T03:45:15;99805.13;;;12.86;78.72
72892;BME280;61032;50.782;6.818;2022-11-15T03:46:24;99803.88;;;12.84;78.62
72892;BME280;61032;50.782;6.818;2022-11-15T03:47:34;99798.78;;;12.86;78.90
72892;BME280;61032;50.782;6.818;2022-11-15T03:49:07;99797.63;;;12.87;78.85
72892;BME280;61032;50.782;6.818;2022-11-15T03:50:19;99801.91;;;12.84;78.76
72892;BME280;61032;50.782;6.818;2022-11-15T03:51:20;99799.16;;;12.84;78.75
72892;BME280;61032;50.782;6.818;2022-11-15T03:52:21;99805.47;;;12.85;79.02
72892;BME280;61032;50.782;6.818;2022-11-15T03:53:22;99798.34;;;12.84;78.45
72892;BME280;61032;50.782;6.818;2022-11-15T03:54:22;99801.13;;;12.84;78.93
72892;BME280;61032;50.782;6.818;2022-11-15T03:55:23;99795.25;;;12.85;79.00
72892;BME280;61032;50.782;6.818;2022-11-15T03:56:23;99793.63;;;12.84;78.84
72892;BME280;61032;50.782;6.818;2022-11-15T03:57:23;99787.75;;;12.86;78.88
72892;BME280;61032;50.782;6.818;2022-11-15T03:58:23;99795.97;;;12.82;78.99
72892;BME280;61032;50.782;6.818;2022-11-15T03:59:24;99803.06;;;12.83;78.90
72892;BME280;61032;50.782;6.818;2022-11-15T04:00:24;99794.00;;;12.83;78.98
72892;BME280;61032;50.782;6.818;2022-11-15T04:01:25;99792.03;;;12.83;78.99
72892;BME280;61032;50.782;6.818;2022-11-15T04:02:25;99784.13;;;12.82;79.01
72892;BME280;61032;50.782;6.818;2022-11-15T04:03:26;99790.44;;;12.82;79.16
72892;BME280;61032;50.782;6.818;2022-11-15T04:04:26;99785.72;;;12.83;79.08
72892;BME280;61032;50.782;6.818;2022-11-15T04:05:27;99781.44;;;12.85;79.17
72892;BME280;61032;50.782;6.818;2022-11-15T04:06:27;99781.72;;;12.80;79.03
72892;BME280;61032;50.782;6.818;2022-11-15T04:07:27;99782.53;;;12.81;79.26
72892;BME280;61032;50.782;6.818;2022-11-15T04:08:27;99776.66;;;12.82;79.21
72892;BME280;61032;50.782;6.818;2022-11-15T04:09:28;99782.59;;;12.84;79.21
72892;BME280;61032;50.782;6.818;2022-11-15T04:10:28;99781.72;;;12.80;79.36
72892;BME280;61032;50.782;6.818;2022-11-15T04:11:28;99780.50;;;12.78;79.29
72892;BME280;61032;50.782;6.818;2022-11-15T04:12:30;99779.63;;;12.73;79.63
72892;BME280;61032;50.782;6.818;2022-11-15T04:13:30;99785.84;;;12.70;79.93
72892;BME280;61032;50.782;6.818;2022-11-15T04:14:31;99777.53;;;12.67;79.80
72892;BME280;61032;50.782;6.818;2022-11-15T04:15:31;99780.34;;;12.70;79.79
72892;BME280;61032;50.782;6.818;2022-11-15T04:16:31;99783.84;;;12.67;79.71
72892;BME280;61032;50.782;6.818;2022-11-15T04:17:32;99775.84;;;12.62;79.94
72892;BME280;61032;50.782;6.818;2022-11-15T04:18:33;99774.78;;;12.67;79.81
72892;BME280;61032;50.782;6.818;2022-11-15T04:19:33;99783.03;;;12.67;79.89
72892;BME280;61032;50.782;6.818;2022-11-15T04:20:52;99780.28;;;12.67;79.89
72892;BME280;61032;50.782;6.818;2022-11-15T04:22:11;99780.19;;;12.63;80.07
72892;BME280;61032;50.782;6.818;2022-11-15T04:23:29;99790.00;;;12.61;80.02
72892;BME280;61032;50.782;6.818;2022-11-15T04:24:48;99787.22;;;12.61;80.17
72892;BME280;61032;50.782;6.818;2022-11-15T04:25:51;99790.06;;;12.64;79.94
72892;BME280;61032;50.782;6.818;2022-11-15T04:26:52;99790.06;;;12.64;79.87
72892;BME280;61032;50.782;6.818;2022-11-15T04:27:52;99790.06;;;12.64;79.96
72892;BME280;61032;50.782;6.818;2022-11-15T04:28:53;99793.28;;;12.66;79.93
72892;BME280;61032;50.782;6.818;2022-11-15T04:30:12;99796.31;;;12.61;79.80
72892;BME280;61032;50.782;6.818;2022-11-15T04:31:12;99788.03;;;12.61;80.05
72892;BME280;61032;50.782;6.818;2022-11-15T04:32:12;99791.22;;;12.63;79.96
72892;BME280;61032;50.782;6.818;2022-11-15T04:33:13;99794.00;;;12.63;80.09
72892;BME280;61032;50.782;6.818;2022-11-15T04:34:13;99793.63;;;12.65;79.89
72892;BME280;61032;50.782;6.818;2022-11-15T04:35:13;99794.00;;;12.63;79.86
72892;BME280;61032;50.782;6.818;2022-11-15T04:36:14;99792.03;;;12.64;79.93
72892;BME280;61032;50.782;6.818;2022-11-15T04:37:33;99795.50;;;12.61;79.97
72892;BME280;61032;50.782;6.818;2022-11-15T04:38:34;99793.09;;;12.59;80.28
72892;BME280;61032;50.782;6.818;2022-11-15T04:39:34;99787.16;;;12.57;79.99
72892;BME280;61032;50.782;6.818;2022-11-15T04:40:35;99796.94;;;12.55;80.19
72892;BME280;61032;50.782;6.818;2022-11-15T04:41:36;99799.63;;;12.51;80.52
72892;BME280;61032;50.782;6.818;2022-11-15T04:42:36;99803.97;;;12.52;80.06
72892;BME280;61032;50.782;6.818;2022-11-15T04:43:37;99794.81;;;12.48;80.14
72892;BME280;61032;50.782;6.818;2022-11-15T04:44:37;99800.72;;;12.47;80.16
72892;BME280;61032;50.782;6.818;2022-11-15T04:45:37;99801.06;;;12.45;80.21
72892;BME280;61032;50.782;6.818;2022-11-15T04:46:38;99803.75;;;12.42;80.31
72892;BME280;61032;50.782;6.818;2022-11-15T04:47:38;99805.25;;;12.39;80.41
72892;BME280;61032;50.782;6.818;2022-11-15T04:48:38;99799.75;;;12.39;80.55
72892;BME280;61032;50.782;6.818;2022-11-15T04:49:39;99795.84;;;12.40;80.28
72892;BME280;61032;50.782;6.818;2022-11-15T04:50:39;99800.56;;;12.39;79.93
72892;BME280;61032;50.782;6.818;2022-11-15T04:51:39;99797.78;;;12.39;80.06
72892;BME280;61032;50.782;6.818;2022-11-15T04:52:48;99806.78;;;12.36;80.16
72892;BME280;61032;50.782;6.818;2022-11-15T04:53:49;99797.63;;;12.32;80.04
72892;BME280;61032;50.782;6.818;2022-11-15T04:54:50;99804.72;;;12.33;80.02
72892;BME280;61032;50.782;6.818;2022-11-15T04:55:50;99799.22;;;12.33;80.08
72892;BME280;61032;50.782;6.818;2022-11-15T04:56:50;99797.00;;;12.39;79.71
72892;BME280;61032;50.782;6.818;2022-11-15T04:58:00;99804.47;;;12.38;79.53
72892;BME280;61032;50.782;6.818;2022-11-15T04:59:00;99801.97;;;12.33;79.70
72892;BME280;61032;50.782;6.818;2022-11-15T05:00:03;99798.34;;;12.29;79.75
72892;BME280;61032;50.782;6.818;2022-11-15T05:01:12;99803.84;;;12.29;79.83
72892;BME280;61032;50.782;6.818;2022-11-15T05:02:14;99801.81;;;12.26;79.98
72892;BME280;61032;50.782;6.818;2022-11-15T05:03:14;99803.00;;;12.25;79.83
72892;BME280;61032;50.782;6.818;2022-11-15T05:04:33;99808.88;;;12.24;79.94
72892;BME280;61032;50.782;6.818;2022-11-15T05:05:33;99794.72;;;12.25;79.93
72892;BME280;61032;50.782;6.818;2022-11-15T05:06:34;99801.75;;;12.23;79.81
72892;BME280;61032;50.782;6.818;2022-11-15T05:07:34;99800.06;;;12.18;80.14
72892;BME280;61032;50.782;6.818;2022-11-15T05:08:34;99793.75;;;12.18;80.13
72892;BME280;61032;50.782;6.818;2022-11-15T05:09:34;99796.94;;;12.20;80.22
72892;BME280;61032;50.782;6.818;2022-11-15T05:10:35;99799.78;;;12.23;79.67
72892;BME280;61032;50.782;6.818;2022-11-15T05:11:35;99796.94;;;12.20;79.88
72892;BME280;61032;50.782;6.818;2022-11-15T05:12:36;99793.31;;;12.16;79.84
72892;BME280;61032;50.782;6.818;2022-11-15T05:13:36;99801.22;;;12.17;79.99
72892;BME280;61032;50.782;6.818;2022-11-15T05:14:36;99803.97;;;12.17;79.68
72892;BME280;61032;50.782;6.818;2022-11-15T05:15:36;99799.63;;;12.16;79.96
72892;BME280;61032;50.782;6.818;2022-11-15T05:16:37;99801.47;;;12.12;79.92
72892;BME280;61032;50.782;6.818;2022-11-15T05:17:38;99807.25;;;12.07;80.37
72892;BME280;61032;50.782;6.818;2022-11-15T05:18:38;99800.25;;;12.10;80.27
72892;BME280;61032;50.782;6.818;2022-11-15T05:19:42;99796.69;;;12.09;80.28
72892;BME280;61032;50.782;6.818;2022-11-15T05:20:42;99797.41;;;12.06;80.12
72892;BME280;61032;50.782;6.818;2022-11-15T05:21:42;99791.03;;;12.02;80.18
72892;BME280;61032;50.782;6.818;2022-11-15T05:22:43;99799.19;;;11.98;80.52
72892;BME280;61032;50.782;6.818;2022-11-15T05:23:43;99799.56;;;11.97;80.54
72892;BME280;61032;50.782;6.818;2022-11-15T05:24:43;99798.31;;;11.94;80.83
72892;BME280;61032;50.782;6.818;2022-11-15T05:25:43;99793.88;;;11.90;80.74
72892;BME280;61032;50.782;6.818;2022-11-15T05:26:44;99800.16;;;11.90;80.77
72892;BME280;61032;50.782;6.818;2022-11-15T05:27:44;99796.25;;;11.91;80.79
72892;BME280;61032;50.782;6.818;2022-11-15T05:28:44;99792.25;;;11.89;80.96
72892;BME280;61032;50.782;6.818;2022-11-15T05:29:45;99790.59;;;11.84;81.01
72892;BME280;61032;50.782;6.818;2022-11-15T05:30:45;99793.72;;;11.83;81.08
72892;BME280;61032;50.782;6.818;2022-11-15T05:31:45;99795.31;;;11.84;81.19
72892;BME280;61032;50.782;6.818;2022-11-15T05:32:46;99795.22;;;11.80;80.91
72892;BME280;61032;50.782;6.818;2022-11-15T05:33:49;99797.16;;;11.80;81.42
72892;BME280;61032;50.782;6.818;2022-11-15T05:34:49;99796.72;;;11.78;81.30
72892;BME280;61032;50.782;6.818;2022-11-15T05:35:54;99801.53;;;11.81;81.08
72892;BME280;61032;50.782;6.818;2022-11-15T05:36:56;99790.50;;;11.81;81.15
72892;BME280;61032;50.782;6.818;2022-11-15T05:37:56;99792.38;;;11.77;81.33
72892;BME280;61032;50.782;6.818;2022-11-15T05:38:57;99798.19;;;11.75;81.28
72892;BME280;61032;50.782;6.818;2022-11-15T05:39:57;99795.25;;;11.68;81.34
72892;BME280;61032;50.782;6.818;2022-11-15T05:40:59;99800.31;;;11.66;81.37
72892;BME280;61032;50.782;6.818;2022-11-15T05:42:09;99794.44;;;11.67;81.51
72892;BME280;61032;50.782;6.818;2022-11-15T05:43:10;99797.91;;;11.64;81.28
72892;BME280;61032;50.782;6.818;2022-11-15T05:44:14;99794.00;;;11.65;81.07
72892;BME280;61032;50.782;6.818;2022-11-15T05:45:17;99789.66;;;11.64;81.22
72892;BME280;61032;50.782;6.818;2022-11-15T05:46:17;99801.13;;;11.66;80.80
72892;BME280;61032;50.782;6.818;2022-11-15T05:47:21;99798.00;;;11.68;80.62
72892;BME280;61032;50.782;6.818;2022-11-15T05:48:23;99795.59;;;11.66;80.87
72892;BME280;61032;50.782;6.818;2022-11-15T05:49:26;99802.00;;;11.70;80.69
72892;BME280;61032;50.782;6.818;2022-11-15T05:50:28;99794.19;;;11.73;80.51
72892;BME280;61032;50.782;6.818;2022-11-15T05:51:29;99791.00;;;11.70;79.92
72892;BME280;61032;50.782;6.818;2022-11-15T05:52:33;99798.81;;;11.68;79.95
72892;BME280;61032;50.782;6.818;2022-11-15T05:53:37;99790.66;;;11.72;80.09
72892;BME280;61032;50.782;6.818;2022-11-15T05:54:37;99798.28;;;11.63;79.78
72892;BME280;61032;50.782;6.818;2022-11-15T05:55:38;99797.41;;;11.59;80.15
72892;BME280;61032;50.782;6.818;2022-11-15T05:56:39;99785.50;;;11.55;80.21
72892;BME280;61032;50.782;6.818;2022-11-15T05:57:40;99787.09;;;11.56;79.93
72892;BME280;61032;50.782;6.818;2022-11-15T05:58:41;99796.16;;;11.56;80.00
72892;BME280;61032;50.782;6.818;2022-11-15T05:59:42;99796.16;;;11.56;79.62